Time;durP1;ratioP1;P1;durP2;ratioP2;P2;SDS_P1;SDS_P2;PMS_P1;PMS_P2;Temp;Humidity;BMP_temperature;BMP_pressure;BME280_temperature;BME280_humidity;BME280_pressure;Samples;Min_cycle;Max_cycle;Signal;HPM_P1;HPM_P2
2023/01/27 00:02:08;;;;;;;0.30;0.30;;;;;;;;;;5131564;27;20247;-86
2023/01/27 00:04:37;;;;;;;0.33;0.33;;;;;;;;;;5115109;28;20197;-86
2023/01/27 00:07:06;;;;;;;0.93;0.57;;;;;;;;;;5114313;28;20201;-88
2023/01/27 00:09:34;;;;;;;0.23;0.20;;;;;;;;;;5113899;28;20213;-86
2023/01/27 00:14:45;;;;;;;0.07;0.07;;;;;;;;;;5115955;28;20200;-86
2023/01/27 00:17:14;;;;;;;0.27;0.27;;;;;;;;;;5111966;28;20269;-86
2023/01/27 00:19:44;;;;;;;0.30;0.30;;;;;;;;;;5112860;28;20225;-86
2023/01/27 00:24:56;;;;;;;0.67;0.67;;;;;;;;;;5115012;28;20242;-86
2023/01/27 00:27:23;;;;;;;0.20;0.20;;;;;;;;;;5112603;28;20685;-87
2023/01/27 00:29:51;;;;;;;0.27;0.27;;;;;;;;;;5112410;28;20198;-86
2023/01/27 00:35:04;;;;;;;0.13;0.13;;;;;;;;;;5113426;28;20192;-87
2023/01/27 00:37:31;;;;;;;0.67;0.57;;;;;;;;;;5115262;28;20258;-85
2023/01/27 00:39:59;;;;;;;0.20;0.20;;;;;;;;;;5115291;28;20241;-87
2023/01/27 00:42:29;;;;;;;0.43;0.43;;;;;;;;;;5114560;28;20197;-87
2023/01/27 00:47:39;;;;;;;0.20;0.20;;;;;;;;;;5078603;28;20284;-86
2023/01/27 00:50:06;;;;;;;3.93;0.83;;;;;;;;;;5112376;28;20201;-87
2023/01/27 00:52:33;;;;;;;0.43;0.23;;;;;;;;;;5112180;28;20687;-87
2023/01/27 00:55:00;;;;;;;0.27;0.27;;;;;;;;;;5112335;28;20200;-86
2023/01/27 00:57:27;;;;;;;0.43;0.43;;;;;;;;;;5112766;28;20193;-85
2023/01/27 00:59:54;;;;;;;0.77;0.77;;;;;;;;;;5111583;28;20225;-87
2023/01/27 01:02:21;;;;;;;0.10;0.10;;;;;;;;;;5111106;28;20653;-84
2023/01/27 01:04:50;;;;;;;0.20;0.20;;;;;;;;;;5113058;28;20205;-87
2023/01/27 01:07:17;;;;;;;0.50;0.43;;;;;;;;;;5112133;28;20271;-85
2023/01/27 01:09:44;;;;;;;0.50;0.50;;;;;;;;;;5128831;27;20660;-86
2023/01/27 01:12:10;;;;;;;0.67;0.30;;;;;;;;;;5132465;27;20200;-87
2023/01/27 01:14:40;;;;;;;1.00;1.00;;;;;;;;;;5132770;27;20204;-87
2023/01/27 01:17:07;;;;;;;0.00;0.00;;;;;;;;;;5131466;27;20232;-87
2023/01/27 01:19:35;;;;;;;0.47;0.47;;;;;;;;;;5132463;27;20662;-88
2023/01/27 01:22:05;;;;;;;3.27;0.90;;;;;;;;;;5132393;27;20193;-87
2023/01/27 01:24:33;;;;;;;0.10;0.10;;;;;;;;;;5133927;27;20200;-87
2023/01/27 01:27:01;;;;;;;0.20;0.20;;;;;;;;;;5134365;27;20192;-88
2023/01/27 01:29:31;;;;;;;1.50;0.83;;;;;;;;;;5135108;27;20201;-84
2023/01/27 01:32:00;;;;;;;0.90;0.90;;;;;;;;;;5136302;27;20592;-83
2023/01/27 01:34:27;;;;;;;2.10;0.73;;;;;;;;;;5118772;28;20197;-87
2023/01/27 01:36:54;;;;;;;0.10;0.10;;;;;;;;;;5112887;28;20258;-86
2023/01/27 01:39:23;;;;;;;0.20;0.20;;;;;;;;;;5111805;28;20573;-84
2023/01/27 01:41:50;;;;;;;0.20;0.20;;;;;;;;;;5112196;28;20607;-86
2023/01/27 01:44:22;;;;;;;0.73;0.50;;;;;;;;;;5113171;27;20661;-87
2023/01/27 01:46:51;;;;;;;0.03;0.03;;;;;;;;;;5110686;28;20203;-87
2023/01/27 01:49:21;;;;;;;0.00;0.00;;;;;;;;;;5118057;27;20224;-85
2023/01/27 01:51:50;;;;;;;0.53;0.53;;;;;;;;;;5131986;27;20232;-86
2023/01/27 01:54:18;;;;;;;0.00;0.00;;;;;;;;;;5132200;27;20200;-86
2023/01/27 01:56:48;;;;;;;0.20;0.20;;;;;;;;;;5133605;27;20219;-86
2023/01/27 01:59:17;;;;;;;0.10;0.10;;;;;;;;;;5133882;27;20197;-84
2023/01/27 02:01:44;;;;;;;0.47;0.47;;;;;;;;;;5132694;27;20687;-85
2023/01/27 02:04:15;;;;;;;1.17;1.07;;;;;;;;;;5112536;28;20197;-85
2023/01/27 02:06:48;;;;;;;0.33;0.33;;;;;;;;;;5111488;28;20259;-85
2023/01/27 02:09:15;;;;;;;0.30;0.30;;;;;;;;;;5110596;28;20217;-85
2023/01/27 02:11:43;;;;;;;0.33;0.33;;;;;;;;;;5111007;28;20700;-85
2023/01/27 02:14:13;;;;;;;0.00;0.00;;;;;;;;;;5111575;28;20682;-86
2023/01/27 02:16:41;;;;;;;3.83;0.53;;;;;;;;;;5112543;28;20197;-86
2023/01/27 02:19:10;;;;;;;0.10;0.10;;;;;;;;;;5116323;28;20516;-86
2023/01/27 02:21:40;;;;;;;0.20;0.20;;;;;;;;;;5114778;28;20201;-85
2023/01/27 02:24:11;;;;;;;0.23;0.23;;;;;;;;;;5111424;28;20576;-86
2023/01/27 02:26:42;;;;;;;0.30;0.30;;;;;;;;;;5111908;28;20205;-85
2023/01/27 02:29:11;;;;;;;0.27;0.27;;;;;;;;;;5110782;28;20197;-85
2023/01/27 02:31:38;;;;;;;0.20;0.20;;;;;;;;;;5110457;28;20636;-86
2023/01/27 02:34:08;;;;;;;0.87;0.87;;;;;;;;;;5113073;28;20301;-84
2023/01/27 02:36:37;;;;;;;0.70;0.70;;;;;;;;;;5115094;28;20295;-87
2023/01/27 02:39:06;;;;;;;0.20;0.20;;;;;;;;;;5115465;28;20580;-85
2023/01/27 02:41:35;;;;;;;0.77;0.43;;;;;;;;;;5115533;28;20632;-86
2023/01/27 02:44:05;;;;;;;0.10;0.10;;;;;;;;;;5112743;28;20204;-86
2023/01/27 02:46:32;;;;;;;0.97;0.70;;;;;;;;;;5113224;28;20231;-83
2023/01/27 02:49:03;;;;;;;0.10;0.10;;;;;;;;;;5113188;28;20664;-86
2023/01/27 02:51:30;;;;;;;0.33;0.33;;;;;;;;;;5114919;28;20204;-86
2023/01/27 02:53:57;;;;;;;0.27;0.27;;;;;;;;;;5119228;28;20245;-85
2023/01/27 02:56:24;;;;;;;0.57;0.40;;;;;;;;;;5120955;28;20250;-84
2023/01/27 02:58:52;;;;;;;0.57;0.50;;;;;;;;;;5113610;28;20244;-85
2023/01/27 03:01:22;;;;;;;0.20;0.20;;;;;;;;;;5111494;28;20237;-87
2023/01/27 03:03:50;;;;;;;0.73;0.40;;;;;;;;;;5109857;28;20665;-86
2023/01/27 03:06:17;;;;;;;0.50;0.50;;;;;;;;;;5110698;28;20246;-85
2023/01/27 03:08:44;;;;;;;1.20;0.60;;;;;;;;;;5110764;28;20197;-86
2023/01/27 03:11:12;;;;;;;0.30;0.30;;;;;;;;;;5111643;28;20654;-86
2023/01/27 03:13:39;;;;;;;0.00;0.00;;;;;;;;;;5111366;28;20625;-86
2023/01/27 03:18:55;;;;;;;0.20;0.20;;;;;;;;;;5114766;28;20614;-85
2023/01/27 03:21:22;;;;;;;0.23;0.23;;;;;;;;;;5121819;28;20278;-85
2023/01/27 03:23:52;;;;;;;0.93;0.30;;;;;;;;;;5118045;28;20208;-86
2023/01/27 03:26:19;;;;;;;0.00;0.00;;;;;;;;;;5114866;28;20204;-87
2023/01/27 03:29:53;;;;;;;0.00;0.00;;;;;;;;;;5114887;28;20288;-84
2023/01/27 03:31:35;;;;;;;0.40;0.40;;;;;;;;;;5115022;28;20181;-85
2023/01/27 03:34:03;;;;;;;0.10;0.10;;;;;;;;;;5115143;28;20201;-85
2023/01/27 03:47:27;;;;;;;0.87;0.80;;;;;;;;;;5125911;28;20206;-84
2023/01/27 03:49:56;;;;;;;0.10;0.10;;;;;;;;;;5129232;28;20193;-84
2023/01/27 03:52:23;;;;;;;0.50;0.50;;;;;;;;;;5117258;28;20197;-85
2023/01/27 03:54:50;;;;;;;0.93;0.47;;;;;;;;;;5117189;28;20194;-83
2023/01/27 03:57:17;;;;;;;0.47;0.47;;;;;;;;;;5117398;28;20243;-85
2023/01/27 03:59:44;;;;;;;0.37;0.37;;;;;;;;;;5115626;28;20208;-86
2023/01/27 04:07:45;;;;;;;0.20;0.20;;;;;;;;;;5113488;28;20257;-85
2023/01/27 04:10:12;;;;;;;0.93;0.93;;;;;;;;;;5113898;28;20229;-86
2023/01/27 04:12:38;;;;;;;0.20;0.20;;;;;;;;;;5114840;28;20201;-86
2023/01/27 04:15:05;;;;;;;1.10;0.63;;;;;;;;;;5114408;28;20281;-86
2023/01/27 04:17:37;;;;;;;0.57;0.57;;;;;;;;;;5114147;28;20257;-85
2023/01/27 04:20:13;;;;;;;0.00;0.00;;;;;;;;;;5114180;28;20278;-85
2023/01/27 04:22:39;;;;;;;0.27;0.27;;;;;;;;;;5113540;28;20660;-86
2023/01/27 04:25:12;;;;;;;0.10;0.10;;;;;;;;;;5112440;28;20242;-86
2023/01/27 04:27:39;;;;;;;0.10;0.10;;;;;;;;;;5113200;28;20201;-86
2023/01/27 04:30:07;;;;;;;0.33;0.33;;;;;;;;;;5113225;28;20205;-85
2023/01/27 04:32:34;;;;;;;0.17;0.17;;;;;;;;;;5113807;28;20270;-86
2023/01/27 04:35:01;;;;;;;0.37;0.37;;;;;;;;;;5114607;28;20201;-86
2023/01/27 04:37:30;;;;;;;0.30;0.30;;;;;;;;;;5114491;28;20197;-86
2023/01/27 04:39:58;;;;;;;0.20;0.20;;;;;;;;;;5114522;27;20651;-86
2023/01/27 04:42:25;;;;;;;0.37;0.37;;;;;;;;;;5115460;28;20491;-85
2023/01/27 04:44:52;;;;;;;0.43;0.17;;;;;;;;;;5114134;28;20197;-85
2023/01/27 04:47:20;;;;;;;0.17;0.17;;;;;;;;;;5113956;28;20262;-85
2023/01/27 04:49:47;;;;;;;0.33;0.33;;;;;;;;;;5113673;28;20194;-86
2023/01/27 04:52:15;;;;;;;0.10;0.10;;;;;;;;;;5113563;27;20284;-85
2023/01/27 04:54:43;;;;;;;0.00;0.00;;;;;;;;;;5112959;28;20198;-86
2023/01/27 04:57:15;;;;;;;0.43;0.40;;;;;;;;;;5112811;28;20262;-85
2023/01/27 04:59:42;;;;;;;0.27;0.27;;;;;;;;;;5112736;28;20193;-86
2023/01/27 05:02:11;;;;;;;3.10;0.73;;;;;;;;;;5112463;28;20329;-85
2023/01/27 05:04:38;;;;;;;0.10;0.10;;;;;;;;;;5113628;28;20197;-84
2023/01/27 05:07:06;;;;;;;0.10;0.10;;;;;;;;;;5113371;28;20383;-86
2023/01/27 05:09:33;;;;;;;0.53;0.53;;;;;;;;;;5114693;28;20258;-86
2023/01/27 05:12:05;;;;;;;0.13;0.13;;;;;;;;;;5116683;28;20205;-85
2023/01/27 05:14:33;;;;;;;0.43;0.43;;;;;;;;;;5117519;28;20186;-87
2023/01/27 05:17:05;;;;;;;0.77;0.77;;;;;;;;;;5117036;28;20237;-84
2023/01/27 05:19:32;;;;;;;0.50;0.50;;;;;;;;;;5119485;28;20189;-85
2023/01/27 05:22:03;;;;;;;0.10;0.10;;;;;;;;;;5117411;28;20323;-89
2023/01/27 05:24:32;;;;;;;0.10;0.10;;;;;;;;;;5112035;28;20194;-86
2023/01/27 05:26:59;;;;;;;0.60;0.60;;;;;;;;;;5112458;28;20206;-88
2023/01/27 05:29:27;;;;;;;0.43;0.43;;;;;;;;;;5112435;28;20212;-86
2023/01/27 05:31:55;;;;;;;0.10;0.10;;;;;;;;;;5112406;28;20197;-88
2023/01/27 05:34:22;;;;;;;0.40;0.40;;;;;;;;;;5113274;28;20390;-87
2023/01/27 05:36:50;;;;;;;0.60;0.60;;;;;;;;;;5117899;28;20792;-85
2023/01/27 05:39:17;;;;;;;0.30;0.30;;;;;;;;;;5120878;28;20243;-90
2023/01/27 05:41:45;;;;;;;0.23;0.23;;;;;;;;;;5120654;28;20256;-89
2023/01/27 05:44:13;;;;;;;2.73;0.33;;;;;;;;;;5118371;28;20193;-88
2023/01/27 05:46:41;;;;;;;5.27;0.70;;;;;;;;;;5114877;27;20273;-88
2023/01/27 05:49:09;;;;;;;0.03;0.03;;;;;;;;;;5118274;27;20262;-87
2023/01/27 05:51:38;;;;;;;0.73;0.73;;;;;;;;;;5116216;27;20255;-84
2023/01/27 05:54:10;;;;;;;0.63;0.63;;;;;;;;;;5131600;27;20204;-87
2023/01/27 05:56:38;;;;;;;1.50;1.43;;;;;;;;;;5129757;27;20284;-85
2023/01/27 05:59:05;;;;;;;0.23;0.23;;;;;;;;;;5119162;27;20263;-86
2023/01/27 06:01:33;;;;;;;0.80;0.43;;;;;;;;;;5126822;27;20231;-86
2023/01/27 06:04:02;;;;;;;0.10;0.10;;;;;;;;;;5126037;27;20196;-86
2023/01/27 06:06:30;;;;;;;0.37;0.37;;;;;;;;;;5115992;27;20193;-85
2023/01/27 06:08:57;;;;;;;0.90;0.90;;;;;;;;;;5130347;27;20686;-85
2023/01/27 06:11:24;;;;;;;0.40;0.40;;;;;;;;;;5132235;27;20269;-86
2023/01/27 06:13:54;;;;;;;0.93;0.43;;;;;;;;;;5132066;27;20189;-86
2023/01/27 06:16:21;;;;;;;0.20;0.20;;;;;;;;;;5137365;27;20197;-84
2023/01/27 06:18:49;;;;;;;3.40;0.73;;;;;;;;;;5134898;27;20255;-86
2023/01/27 06:21:19;;;;;;;0.63;0.60;;;;;;;;;;5116457;28;20656;-83
2023/01/27 06:23:45;;;;;;;1.10;1.10;;;;;;;;;;5111159;28;20189;-86
2023/01/27 06:26:25;;;;;;;0.60;0.60;;;;;;;;;;5109546;28;20230;-85
2023/01/27 06:28:53;;;;;;;0.07;0.07;;;;;;;;;;5109635;28;20223;-84
2023/01/27 06:31:21;;;;;;;2.27;1.70;;;;;;;;;;5111151;28;20213;-84
2023/01/27 06:33:49;;;;;;;0.10;0.10;;;;;;;;;;5111162;28;20258;-85
2023/01/27 06:36:20;;;;;;;0.83;0.83;;;;;;;;;;5129087;28;20283;-85
2023/01/27 06:38:48;;;;;;;6.93;1.63;;;;;;;;;;5130289;28;20192;-85
2023/01/27 06:41:16;;;;;;;0.10;0.10;;;;;;;;;;5129908;28;20698;-84
2023/01/27 06:43:43;;;;;;;0.00;0.00;;;;;;;;;;5130034;28;20200;-86
2023/01/27 06:46:09;;;;;;;8.27;0.57;;;;;;;;;;5129269;28;20683;-85
2023/01/27 06:48:39;;;;;;;1.70;0.50;;;;;;;;;;5121574;28;20201;-85
2023/01/27 06:51:07;;;;;;;0.30;0.30;;;;;;;;;;5120755;27;20643;-85
2023/01/27 06:53:36;;;;;;;0.10;0.10;;;;;;;;;;5109331;27;20288;-86
2023/01/27 06:56:04;;;;;;;0.53;0.53;;;;;;;;;;5122050;28;20201;-86
2023/01/27 06:58:31;;;;;;;0.93;0.90;;;;;;;;;;5122902;27;20236;-86
2023/01/27 07:00:59;;;;;;;3.90;0.90;;;;;;;;;;5124485;27;20255;-85
2023/01/27 07:03:28;;;;;;;0.67;0.67;;;;;;;;;;5136031;27;20223;-84
2023/01/27 07:05:55;;;;;;;0.50;0.50;;;;;;;;;;5134027;27;20199;-85
2023/01/27 07:08:23;;;;;;;0.47;0.47;;;;;;;;;;5133574;27;20214;-85
2023/01/27 07:10:52;;;;;;;2.67;1.57;;;;;;;;;;5133566;27;20428;-83
2023/01/27 07:13:19;;;;;;;0.53;0.53;;;;;;;;;;5133828;27;20216;-84
2023/01/27 07:15:46;;;;;;;0.67;0.67;;;;;;;;;;5133387;27;20273;-83
2023/01/27 07:18:13;;;;;;;0.40;0.40;;;;;;;;;;5134316;27;20231;-85
2023/01/27 07:20:40;;;;;;;1.03;0.50;;;;;;;;;;5137978;27;20196;-84
2023/01/27 07:23:08;;;;;;;1.57;0.43;;;;;;;;;;5146497;27;20197;-85
2023/01/27 07:25:38;;;;;;;0.30;0.30;;;;;;;;;;5144839;27;20208;-86
2023/01/27 07:28:08;;;;;;;0.07;0.07;;;;;;;;;;5135595;27;20188;-87
2023/01/27 07:30:38;;;;;;;0.53;0.53;;;;;;;;;;5129095;27;20224;-85
2023/01/27 07:33:05;;;;;;;0.83;0.70;;;;;;;;;;5117285;28;20734;-86
2023/01/27 07:35:32;;;;;;;2.17;1.00;;;;;;;;;;5117060;28;20759;-85
2023/01/27 07:37:59;;;;;;;1.97;1.17;;;;;;;;;;5117863;28;20296;-84
2023/01/27 07:40:26;;;;;;;1.60;0.97;;;;;;;;;;5112533;28;20193;-84
2023/01/27 07:43:05;;;;;;;0.23;0.23;;;;;;;;;;5114902;28;20613;-86
2023/01/27 07:45:35;;;;;;;0.83;0.77;;;;;;;;;;5121962;28;20193;-86
2023/01/27 07:48:02;;;;;;;0.40;0.40;;;;;;;;;;5113548;28;20198;-84
2023/01/27 07:50:29;;;;;;;0.53;0.53;;;;;;;;;;5116144;28;20250;-86
2023/01/27 07:53:00;;;;;;;0.40;0.40;;;;;;;;;;5117125;28;20209;-84
2023/01/27 07:55:27;;;;;;;0.27;0.27;;;;;;;;;;5116417;28;20272;-85
2023/01/27 07:57:54;;;;;;;4.03;0.67;;;;;;;;;;5115347;27;20197;-86
2023/01/27 08:00:24;;;;;;;0.47;0.47;;;;;;;;;;5130727;27;20202;-86
2023/01/27 08:02:54;;;;;;;0.37;0.37;;;;;;;;;;5116853;28;20847;-85
2023/01/27 08:05:22;;;;;;;0.93;0.93;;;;;;;;;;5113577;28;20197;-85
2023/01/27 08:07:49;;;;;;;8.10;1.07;;;;;;;;;;5127009;27;20288;-86
2023/01/27 08:10:19;;;;;;;2.70;0.97;;;;;;;;;;5130773;27;20205;-86
2023/01/27 08:12:46;;;;;;;0.63;0.63;;;;;;;;;;5132670;27;20211;-86
2023/01/27 08:15:13;;;;;;;0.47;0.47;;;;;;;;;;5132286;27;20322;-86
2023/01/27 08:17:40;;;;;;;1.03;1.03;;;;;;;;;;5131629;27;20279;-86
2023/01/27 08:20:11;;;;;;;0.77;0.77;;;;;;;;;;5134917;27;20192;-84
2023/01/27 08:22:39;;;;;;;0.47;0.47;;;;;;;;;;5136654;27;20527;-86
2023/01/27 08:25:09;;;;;;;17.27;0.97;;;;;;;;;;5139423;27;20816;-86
2023/01/27 08:27:36;;;;;;;3.50;0.80;;;;;;;;;;5138409;27;20212;-87
2023/01/27 08:30:04;;;;;;;0.60;0.60;;;;;;;;;;5134877;27;20220;-87
2023/01/27 08:32:31;;;;;;;0.83;0.50;;;;;;;;;;5137127;27;20281;-87
2023/01/27 08:34:59;;;;;;;0.13;0.13;;;;;;;;;;5134297;27;20235;-86
2023/01/27 08:37:27;;;;;;;0.93;0.93;;;;;;;;;;5133707;27;20216;-87
2023/01/27 08:39:59;;;;;;;0.40;0.40;;;;;;;;;;5126853;27;20731;-85
2023/01/27 08:42:28;;;;;;;0.13;0.13;;;;;;;;;;5119041;27;20228;-84
2023/01/27 08:45:04;;;;;;;0.97;0.83;;;;;;;;;;5135875;27;20285;-88
2023/01/27 08:47:35;;;;;;;1.93;0.57;;;;;;;;;;5136256;27;20216;-86
2023/01/27 08:50:02;;;;;;;0.20;0.20;;;;;;;;;;5132858;27;20335;-86
2023/01/27 08:52:32;;;;;;;0.20;0.20;;;;;;;;;;5132395;27;20229;-85
2023/01/27 08:55:00;;;;;;;0.30;0.30;;;;;;;;;;5136760;27;20239;-86
2023/01/27 08:57:31;;;;;;;0.17;0.17;;;;;;;;;;5134151;27;20244;-86
2023/01/27 09:00:05;;;;;;;0.00;0.00;;;;;;;;;;5131197;27;20212;-85
2023/01/27 09:02:32;;;;;;;0.47;0.30;;;;;;;;;;5135280;27;20252;-85
2023/01/27 09:05:02;;;;;;;0.10;0.10;;;;;;;;;;5133832;27;20926;-85
2023/01/27 09:07:38;;;;;;;0.43;0.43;;;;;;;;;;5136750;27;20225;-92
2023/01/27 09:10:17;;;;;;;0.00;0.00;;;;;;;;;;5128005;28;20248;-91
2023/01/27 09:12:44;;;;;;;1.03;0.37;;;;;;;;;;5134939;27;20308;-85
2023/01/27 09:15:13;;;;;;;0.57;0.57;;;;;;;;;;5131416;27;20307;-84
2023/01/27 09:17:43;;;;;;;0.63;0.40;;;;;;;;;;5139321;27;20232;-86
2023/01/27 09:20:12;;;;;;;0.20;0.20;;;;;;;;;;5136235;27;20221;-86
2023/01/27 09:22:56;;;;;;;0.40;0.40;;;;;;;;;;5132866;27;20731;-84
2023/01/27 09:25:28;;;;;;;0.63;0.63;;;;;;;;;;5133448;27;20224;-86
2023/01/27 09:27:56;;;;;;;0.20;0.20;;;;;;;;;;5134496;27;20216;-86
2023/01/27 09:30:23;;;;;;;0.37;0.37;;;;;;;;;;5134696;27;20224;-85
2023/01/27 09:33:02;;;;;;;0.33;0.30;;;;;;;;;;5134745;27;20220;-85
2023/01/27 09:35:33;;;;;;;0.97;0.33;;;;;;;;;;5135187;27;20244;-86
2023/01/27 09:38:01;;;;;;;0.10;0.10;;;;;;;;;;5132532;27;20225;-86
2023/01/27 09:40:34;;;;;;;1.23;1.23;;;;;;;;;;5129726;27;20228;-86
2023/01/27 09:43:27;;;;;;;0.37;0.37;;;;;;;;;;5131513;27;20232;-86
2023/01/27 09:46:07;;;;;;;3.90;1.90;;;;;;;;;;5131638;27;20219;-85
2023/01/27 09:48:41;;;;;;;0.30;0.30;;;;;;;;;;5132212;27;20212;-85
2023/01/27 09:51:13;;;;;;;0.00;0.00;;;;;;;;;;5132239;27;20231;-85
2023/01/27 09:53:53;;;;;;;0.87;0.57;;;;;;;;;;5137338;27;20218;-85
2023/01/27 09:56:32;;;;;;;0.30;0.30;;;;;;;;;;5140257;27;20228;-84
2023/01/27 09:59:16;;;;;;;0.40;0.40;;;;;;;;;;5142660;27;20220;-86
2023/01/27 10:01:48;;;;;;;0.00;0.00;;;;;;;;;;5139101;27;20259;-85
2023/01/27 10:04:45;;;;;;;2.57;0.43;;;;;;;;;;5139756;27;20720;-86
2023/01/27 10:07:25;;;;;;;0.40;0.40;;;;;;;;;;5138821;27;20216;-87
2023/01/27 10:09:59;;;;;;;0.10;0.10;;;;;;;;;;5120095;28;20271;-86
2023/01/27 10:12:42;;;;;;;1.27;0.87;;;;;;;;;;5120937;28;20266;-86
2023/01/27 10:15:38;;;;;;;0.17;0.17;;;;;;;;;;5117546;28;20282;-85
2023/01/27 10:18:11;;;;;;;0.20;0.20;;;;;;;;;;5118215;28;20233;-86
2023/01/27 10:20:42;;;;;;;1.00;0.93;;;;;;;;;;5117146;28;20233;-85
2023/01/27 10:23:13;;;;;;;1.40;0.50;;;;;;;;;;5117013;28;20713;-86
2023/01/27 10:25:47;;;;;;;0.80;0.80;;;;;;;;;;5120317;28;20213;-85
2023/01/27 10:28:20;;;;;;;0.33;0.33;;;;;;;;;;5122301;28;20217;-86
2023/01/27 10:31:11;;;;;;;2.47;0.93;;;;;;;;;;5123549;28;20221;-86
2023/01/27 10:33:50;;;;;;;0.23;0.23;;;;;;;;;;5122039;28;20228;-86
2023/01/27 10:36:22;;;;;;;0.30;0.30;;;;;;;;;;5119025;27;20248;-86
2023/01/27 10:38:53;;;;;;;0.30;0.30;;;;;;;;;;5119650;28;20245;-86
2023/01/27 10:41:25;;;;;;;0.10;0.10;;;;;;;;;;5119705;28;20836;-87
2023/01/27 10:44:01;;;;;;;0.10;0.10;;;;;;;;;;5123567;28;20281;-86
2023/01/27 10:46:31;;;;;;;0.13;0.13;;;;;;;;;;5124048;28;20228;-86
2023/01/27 10:49:02;;;;;;;0.30;0.30;;;;;;;;;;5126034;28;20648;-86
2023/01/27 10:51:34;;;;;;;0.17;0.17;;;;;;;;;;5124356;28;20246;-85
2023/01/27 10:54:07;;;;;;;0.50;0.50;;;;;;;;;;5126872;28;20704;-86
2023/01/27 10:56:37;;;;;;;0.40;0.40;;;;;;;;;;5124041;28;20296;-87
2023/01/27 10:59:11;;;;;;;0.37;0.37;;;;;;;;;;5122928;28;20749;-86
2023/01/27 11:01:42;;;;;;;0.00;0.00;;;;;;;;;;5123322;28;20599;-87
2023/01/27 11:04:12;;;;;;;0.30;0.30;;;;;;;;;;5122815;28;20251;-86
2023/01/27 11:06:41;;;;;;;0.27;0.27;;;;;;;;;;5121529;28;20772;-84
2023/01/27 11:09:13;;;;;;;2.00;0.77;;;;;;;;;;5140295;27;20252;-85
2023/01/27 11:11:45;;;;;;;0.00;0.00;;;;;;;;;;5143054;27;20250;-86
2023/01/27 11:14:21;;;;;;;0.37;0.37;;;;;;;;;;5143043;27;20228;-85
2023/01/27 11:16:53;;;;;;;0.37;0.37;;;;;;;;;;5141068;27;20239;-86
2023/01/27 11:19:26;;;;;;;0.10;0.10;;;;;;;;;;5148614;27;20224;-86
2023/01/27 11:21:54;;;;;;;0.63;0.63;;;;;;;;;;5145923;27;20216;-86
2023/01/27 11:24:24;;;;;;;1.00;0.33;;;;;;;;;;5144260;27;20225;-85
2023/01/27 11:26:56;;;;;;;0.47;0.47;;;;;;;;;;5143603;27;20243;-86
2023/01/27 11:29:32;;;;;;;0.43;0.43;;;;;;;;;;5143385;27;20292;-85
2023/01/27 11:32:04;;;;;;;0.43;0.43;;;;;;;;;;5143333;27;20220;-86
2023/01/27 11:34:33;;;;;;;0.70;0.70;;;;;;;;;;5143278;27;20292;-86
2023/01/27 11:37:02;;;;;;;0.33;0.33;;;;;;;;;;5141683;27;20220;-85
2023/01/27 11:39:32;;;;;;;0.40;0.40;;;;;;;;;;5142803;27;20224;-85
2023/01/27 11:42:00;;;;;;;1.80;0.40;;;;;;;;;;5142244;27;20534;-87
2023/01/27 11:44:30;;;;;;;0.10;0.10;;;;;;;;;;5141884;27;20224;-86
2023/01/27 11:46:56;;;;;;;0.20;0.20;;;;;;;;;;5143624;27;20224;-86
2023/01/27 11:49:26;;;;;;;0.67;0.57;;;;;;;;;;5142165;27;20228;-85
2023/01/27 11:52:09;;;;;;;0.60;0.60;;;;;;;;;;5141470;27;20219;-86
2023/01/27 11:54:37;;;;;;;0.67;0.67;;;;;;;;;;5142129;27;20296;-86
2023/01/27 11:57:16;;;;;;;1.40;0.43;;;;;;;;;;5141923;27;20243;-86
2023/01/27 11:59:45;;;;;;;1.40;0.60;;;;;;;;;;5142027;27;20224;-85
2023/01/27 12:02:19;;;;;;;0.27;0.27;;;;;;;;;;5139881;27;20225;-87
2023/01/27 12:04:50;;;;;;;0.43;0.43;;;;;;;;;;5139507;27;20216;-87
2023/01/27 12:07:22;;;;;;;0.00;0.00;;;;;;;;;;5139311;27;20231;-85
2023/01/27 12:09:51;;;;;;;0.30;0.30;;;;;;;;;;5123240;28;20227;-86
2023/01/27 12:12:22;;;;;;;0.33;0.33;;;;;;;;;;5125639;28;20221;-86
2023/01/27 12:14:55;;;;;;;3.17;1.40;;;;;;;;;;5135083;27;20217;-86
2023/01/27 12:17:31;;;;;;;0.40;0.40;;;;;;;;;;5142058;27;20304;-85
2023/01/27 12:19:59;;;;;;;0.33;0.33;;;;;;;;;;5143043;27;20216;-85
2023/01/27 12:22:27;;;;;;;0.60;0.60;;;;;;;;;;5141921;27;20224;-86
2023/01/27 12:24:59;;;;;;;0.10;0.10;;;;;;;;;;5139989;27;20307;-86
2023/01/27 12:27:28;;;;;;;0.20;0.20;;;;;;;;;;5135410;27;20216;-85
2023/01/27 12:29:56;;;;;;;0.63;0.63;;;;;;;;;;5132133;27;20248;-85
2023/01/27 12:32:37;;;;;;;0.40;0.40;;;;;;;;;;5132934;27;20220;-85
2023/01/27 12:35:05;;;;;;;0.17;0.17;;;;;;;;;;5132612;27;20280;-86
2023/01/27 12:37:34;;;;;;;0.30;0.30;;;;;;;;;;5129282;27;20227;-86
2023/01/27 12:40:03;;;;;;;0.40;0.40;;;;;;;;;;5115984;27;20243;-85
2023/01/27 12:42:34;;;;;;;1.33;0.57;;;;;;;;;;5115003;28;20717;-85
2023/01/27 12:45:16;;;;;;;0.93;0.93;;;;;;;;;;5115928;27;20305;-84
2023/01/27 12:47:57;;;;;;;0.40;0.40;;;;;;;;;;5117430;28;20227;-85
2023/01/27 12:50:26;;;;;;;0.80;0.80;;;;;;;;;;5114169;28;20221;-85
2023/01/27 12:52:53;;;;;;;0.10;0.10;;;;;;;;;;5115098;28;20312;-86
2023/01/27 12:55:33;;;;;;;0.10;0.10;;;;;;;;;;5115319;28;20315;-85
2023/01/27 12:58:05;;;;;;;0.20;0.20;;;;;;;;;;5114823;28;20259;-85
2023/01/27 13:00:34;;;;;;;1.03;0.73;;;;;;;;;;5115843;28;20316;-86
2023/01/27 13:03:31;;;;;;;0.40;0.30;;;;;;;;;;5117050;28;20258;-85
2023/01/27 13:09:08;;;;;;;;;;;;;;;;;;;;;
2023/01/27 13:11:43;;;;;;;0.27;0.27;;;;;;;;;;5112201;28;20784;-85
2023/01/27 13:14:24;;;;;;;0.20;0.20;;;;;;;;;;5111430;27;20235;-84
2023/01/27 13:16:57;;;;;;;0.30;0.27;;;;;;;;;;5108793;28;20241;-84
2023/01/27 13:19:35;;;;;;;0.10;0.10;;;;;;;;;;5117855;27;20275;-85
2023/01/27 13:25:30;;;;;;;0.20;0.20;;;;;;;;;;5084086;27;20226;-83
2023/01/27 13:28:09;;;;;;;0.57;0.57;;;;;;;;;;5092409;28;20229;-85
2023/01/27 13:30:50;;;;;;;;;;;;;;;;;;;;;
2023/01/27 13:33:25;;;;;;;2.30;0.83;;;;;;;;;;5131280;27;20200;-85
2023/01/27 13:36:04;;;;;;;0.87;0.87;;;;;;;;;;5131210;27;20688;-85
2023/01/27 13:38:49;;;;;;;0.00;0.00;;;;;;;;;;5118437;27;20238;-86
2023/01/27 13:41:20;;;;;;;2.67;0.70;;;;;;;;;;5114070;28;20266;-85
2023/01/27 13:44:04;;;;;;;0.10;0.10;;;;;;;;;;5114818;28;20255;-86
2023/01/27 13:46:41;;;;;;;0.53;0.53;;;;;;;;;;5068924;28;20250;-86
2023/01/27 13:49:19;;;;;;;0.40;0.40;;;;;;;;;;5081076;28;20197;-86
2023/01/27 13:55:05;;;;;;;0.27;0.27;;;;;;;;;;5026574;28;20203;-83
2023/01/27 13:57:49;;;;;;;0.10;0.10;;;;;;;;;;5087914;28;20189;-86
2023/01/27 14:00:23;;;;;;;1.83;1.73;;;;;;;;;;5097044;27;20201;-85
2023/01/27 14:03:07;;;;;;;0.10;0.10;;;;;;;;;;5112117;28;20607;-86
2023/01/27 14:15:16;;;;;;;0.60;0.20;;;;;;;;;;5059475;28;20604;-86
2023/01/27 14:21:02;;;;;;;0.10;0.10;;;;;;;;;;5117390;27;20228;-87
2023/01/27 14:23:59;;;;;;;;;;;;;;;;;;;;;
2023/01/27 14:26:36;;;;;;;1.30;0.37;;;;;;;;;;5136396;28;20227;-87
2023/01/27 14:29:18;;;;;;;0.67;0.67;;;;;;;;;;5137268;27;20235;-85
2023/01/27 14:35:08;;;;;;;0.30;0.30;;;;;;;;;;5072458;28;20218;-85
2023/01/27 14:40:40;;;;;;;0.73;0.73;;;;;;;;;;5064685;28;20645;-86
2023/01/27 14:46:23;;;;;;;0.53;0.53;;;;;;;;;;4988408;28;20225;-87
2023/01/27 14:49:19;;;;;;;;;;;;;;;;;;;;;
2023/01/27 14:52:20;;;;;;;1.17;0.30;;;;;;;;;;5068346;28;20657;-86
2023/01/27 14:55:25;;;;;;;0.27;0.27;;;;;;;;;;4988702;28;20314;-84
2023/01/27 14:57:58;;;;;;;0.07;0.07;;;;;;;;;;5065792;28;20241;-86
2023/01/27 15:03:51;;;;;;;0.50;0.20;;;;;;;;;;5132929;27;20274;-85
2023/01/27 15:09:42;;;;;;;0.00;0.00;;;;;;;;;;5009389;28;20231;-86
2023/01/27 15:12:46;;;;;;;;;;;;;;;;;;;;;
2023/01/27 15:15:35;;;;;;;0.47;0.47;;;;;;;;;;5065770;28;20233;-86
2023/01/27 15:18:25;;;;;;;0.67;0.43;;;;;;;;;;5063717;28;20265;-85
2023/01/27 15:24:12;;;;;;;1.23;1.23;;;;;;;;;;5061432;28;20246;-86
2023/01/27 15:36:23;;;;;;;0.40;0.40;;;;;;;;;;4978723;28;20239;-85
2023/01/27 15:39:00;;;;;;;0.20;0.20;;;;;;;;;;5074778;28;20266;-86
2023/01/27 15:41:30;;;;;;;0.43;0.43;;;;;;;;;;5116270;27;20697;-87
2023/01/27 15:44:05;;;;;;;0.97;0.90;;;;;;;;;;5118207;28;20267;-86
2023/01/27 15:46:36;;;;;;;0.40;0.40;;;;;;;;;;5115507;28;20232;-86
2023/01/27 15:49:04;;;;;;;0.30;0.30;;;;;;;;;;5116562;28;20240;-86
2023/01/27 15:51:35;;;;;;;0.87;0.87;;;;;;;;;;5117413;28;20239;-85
2023/01/27 15:54:05;;;;;;;0.77;0.77;;;;;;;;;;5119944;28;20235;-84
2023/01/27 15:56:42;;;;;;;2.10;1.07;;;;;;;;;;5122809;28;20272;-85
2023/01/27 15:59:14;;;;;;;0.30;0.30;;;;;;;;;;5123915;28;20498;-86
2023/01/27 16:01:43;;;;;;;0.30;0.30;;;;;;;;;;5117432;28;20239;-85
2023/01/27 16:04:16;;;;;;;0.23;0.23;;;;;;;;;;5115949;28;20285;-86
2023/01/27 16:06:50;;;;;;;0.23;0.23;;;;;;;;;;5117235;27;20220;-86
2023/01/27 16:09:22;;;;;;;0.20;0.20;;;;;;;;;;5137162;27;20245;-87
2023/01/27 16:11:59;;;;;;;0.73;0.73;;;;;;;;;;5141395;27;20226;-86
2023/01/27 16:14:36;;;;;;;0.23;0.23;;;;;;;;;;5138311;27;20220;-88
2023/01/27 16:17:09;;;;;;;1.40;1.30;;;;;;;;;;5135695;27;20235;-86
2023/01/27 16:19:39;;;;;;;12.13;8.17;;;;;;;;;;5135596;27;20241;-86
2023/01/27 16:22:13;;;;;;;8.80;7.93;;;;;;;;;;5136033;27;20192;-86
2023/01/27 16:24:45;;;;;;;2.03;1.97;;;;;;;;;;5136710;27;20249;-85
2023/01/27 16:27:22;;;;;;;1.07;1.07;;;;;;;;;;5137140;27;20204;-86
2023/01/27 16:29:52;;;;;;;0.20;0.20;;;;;;;;;;5136241;27;20201;-87
2023/01/27 16:32:20;;;;;;;0.10;0.10;;;;;;;;;;5134230;27;20220;-86
2023/01/27 16:34:49;;;;;;;1.43;0.97;;;;;;;;;;5134988;27;20197;-86